This is the latest recevied weather packets stored in our database for station/object EFTP. If no packets are shown the sender has not sent any weather packets the latest 10 day(s).
| Time | Temp. | Humidity | Pressure | Rain* | Wind** | Luminosity | Snow |
|---|---|---|---|---|---|---|---|
| 1777708024 | 15.56° C | 43% | 1008.8 hPa | - | - | - | - |
| 1777706823 | 15° C | 44% | 1008.7 hPa | - | - | - | - |
| 1777705623 | 14.44° C | 47% | 1008.9 hPa | - | - | - | - |
| 1777704423 | 14.44° C | 48% | 1009 hPa | - | - | - | - |
| 1777703223 | 13.33° C | 51% | 1009.2 hPa | - | - | - | - |
| 1777702023 | 12.22° C | 56% | 1009.4 hPa | - | - | - | - |
| 1777700823 | 11.11° C | 61% | 1009.5 hPa | - | - | - | - |
| 1777699623 | 10° C | 66% | 1009.7 hPa | - | - | - | - |
| 1777698423 | 8.89° C | 68% | 1009.8 hPa | - | - | - | - |
| 1777697223 | 8.33° C | 73% | 1010.1 hPa | - | - | - | - |
| 1777696023 | 7.22° C | 76% | 1010.3 hPa | - | - | - | - |
| 1777694822 | 6.67° C | 78% | 1010.4 hPa | - | - | - | - |
| 1777693623 | 6.67° C | 78% | 1010.6 hPa | - | - | - | - |
| 1777692422 | 6.11° C | 79% | 1010.9 hPa | - | - | - | - |
| 1777691222 | 5° C | 80% | 1011 hPa | - | - | - | - |
| 1777690022 | 2.78° C | 90% | 1011.1 hPa | - | - | - | - |
| 1777688823 | 2.78° C | 84% | 1011.5 hPa | - | - | - | - |
| 1777687622 | 2.22° C | 90% | 1011.7 hPa | - | - | - | - |
| 1777686422 | 2.22° C | 88% | 1012 hPa | - | - | - | - |
| 1777685223 | 2.78° C | 87% | 1012.3 hPa | - | - | - | - |
| 1777684023 | 2.22° C | 91% | 1012.5 hPa | - | - | - | - |
| 1777682822 | 2.78° C | 90% | 1012.9 hPa | - | - | - | - |
| 1777681622 | 2.78° C | 88% | 1013.2 hPa | - | - | - | - |
| 1777680422 | 3.89° C | 83% | 1013.4 hPa | - | - | - | - |
| 1777679222 | 3.33° C | 84% | 1013.4 hPa | - | - | - | - |
* Rain since midnight (hover to see other rain measurements)
** Current wind speed in m/s (hover to see current wind gust speed)